createdAt,value
2018-03-29T00:00:23.967Z,6.13
2018-03-29T00:02:51.478Z,6.93
2018-03-29T00:05:18.991Z,6.00
2018-03-29T00:07:46.560Z,6.40
2018-03-29T00:10:14.072Z,5.67
2018-03-29T00:12:41.605Z,5.30
2018-03-29T00:15:09.191Z,6.10
2018-03-29T00:17:37.471Z,6.07
2018-03-29T00:20:05.744Z,5.70
2018-03-29T00:22:34.028Z,6.63
2018-03-29T00:25:02.305Z,7.30
2018-03-29T00:27:30.580Z,7.10
2018-03-29T00:29:58.099Z,7.00
2018-03-29T00:32:25.604Z,8.43
2018-03-29T00:34:53.887Z,10.90
2018-03-29T00:37:21.421Z,12.13
2018-03-29T00:39:48.943Z,13.37
2018-03-29T00:42:16.451Z,13.37
2018-03-29T00:44:43.996Z,16.57
2018-03-29T00:47:11.537Z,16.53
2018-03-29T00:49:39.147Z,18.30
2018-03-29T00:52:07.431Z,14.27
2018-03-29T00:54:35.715Z,17.97
2018-03-29T00:57:03.232Z,21.57
2018-03-29T00:59:30.757Z,21.47
2018-03-29T01:01:58.290Z,19.23
2018-03-29T01:04:26.592Z,19.97
2018-03-29T01:06:54.176Z,22.13
2018-03-29T01:09:21.701Z,19.27
2018-03-29T01:11:50.069Z,19.62
2018-03-29T01:14:17.592Z,19.00
2018-03-29T01:16:45.156Z,17.13
2018-03-29T01:19:12.676Z,19.13
2018-03-29T01:21:40.195Z,19.57
2018-03-29T01:24:07.728Z,17.33
2018-03-29T01:26:35.732Z,18.13
2018-03-29T01:29:03.272Z,18.10
2018-03-29T01:31:30.811Z,18.23
2018-03-29T01:33:58.328Z,18.50
2018-03-29T01:36:25.855Z,18.10
2018-03-29T01:38:53.384Z,17.97
2018-03-29T01:41:20.901Z,17.07
2018-03-29T01:43:49.215Z,14.97
2018-03-29T01:46:16.731Z,17.63
2018-03-29T01:48:45.013Z,17.07
2018-03-29T01:51:12.529Z,17.33
2018-03-29T01:53:40.060Z,16.90
2018-03-29T01:56:07.627Z,17.83
2018-03-29T01:58:35.099Z,17.47
2018-03-29T02:01:02.640Z,16.67
2018-03-29T02:03:30.177Z,17.00
2018-03-29T02:05:58.499Z,17.60
2018-03-29T02:08:26.060Z,16.83
2018-03-29T02:10:53.583Z,16.67
2018-03-29T02:13:21.882Z,17.17
2018-03-29T02:15:49.403Z,15.90
2018-03-29T02:18:16.923Z,17.33
2018-03-29T02:20:44.440Z,17.43
2018-03-29T02:23:12.723Z,16.50
2018-03-29T02:25:40.252Z,16.80
2018-03-29T02:28:08.639Z,16.90
2018-03-29T02:30:36.175Z,17.83
2018-03-29T02:33:03.701Z,17.67
2018-03-29T02:35:31.238Z,15.93
2018-03-29T02:37:59.539Z,16.97
2018-03-29T02:40:27.072Z,16.57
2018-03-29T02:42:55.369Z,17.13
2018-03-29T02:45:22.884Z,16.40
2018-03-29T02:47:50.413Z,16.50
2018-03-29T02:50:17.928Z,15.77
2018-03-29T02:52:45.452Z,15.83
2018-03-29T02:55:12.958Z,16.20
2018-03-29T02:57:41.244Z,16.43
2018-03-29T03:00:08.783Z,16.37
2018-03-29T03:02:37.068Z,15.60
2018-03-29T03:05:04.610Z,16.90
2018-03-29T03:07:33.376Z,16.67
2018-03-29T03:10:00.919Z,16.97
2018-03-29T03:12:28.484Z,16.37
2018-03-29T03:14:55.998Z,18.13
2018-03-29T03:17:24.292Z,16.83
2018-03-29T03:19:51.811Z,16.43
2018-03-29T03:22:19.335Z,16.83
2018-03-29T03:24:46.943Z,17.93
2018-03-29T03:27:14.476Z,16.50
2018-03-29T03:29:41.995Z,18.07
2018-03-29T03:32:09.520Z,17.50
2018-03-29T03:34:37.071Z,16.33
2018-03-29T03:37:04.619Z,17.70
2018-03-29T03:39:32.127Z,17.10
2018-03-29T03:41:59.643Z,17.17
2018-03-29T03:44:27.174Z,16.63
2018-03-29T03:46:54.700Z,17.83
2018-03-29T03:49:22.219Z,18.07
2018-03-29T03:51:49.755Z,16.97
2018-03-29T03:54:17.274Z,17.57
2018-03-29T03:56:45.549Z,18.43
2018-03-29T03:59:13.834Z,17.57
2018-03-29T04:01:41.363Z,18.23
2018-03-29T04:04:08.920Z,17.70
2018-03-29T04:06:36.446Z,17.60
2018-03-29T04:09:03.970Z,17.97
2018-03-29T04:11:31.482Z,19.63
2018-03-29T04:13:59.010Z,20.43
2018-03-29T04:16:26.531Z,19.50
2018-03-29T04:18:54.058Z,20.23
2018-03-29T04:21:21.571Z,17.17
2018-03-29T04:23:50.471Z,19.00
2018-03-29T04:26:18.014Z,18.73
2018-03-29T04:28:45.534Z,21.07
2018-03-29T04:31:13.052Z,19.17
2018-03-29T04:33:41.344Z,20.63
2018-03-29T04:36:08.859Z,20.27
2018-03-29T04:38:36.387Z,18.30
2018-03-29T04:41:03.928Z,22.33
2018-03-29T04:43:31.462Z,20.03
2018-03-29T04:45:58.995Z,23.60
2018-03-29T04:48:26.516Z,23.23
2018-03-29T04:50:54.055Z,24.37
2018-03-29T04:53:21.581Z,22.30
2018-03-29T04:55:49.122Z,22.70
2018-03-29T04:58:16.660Z,24.53
2018-03-29T05:00:44.250Z,23.53
2018-03-29T05:03:11.780Z,26.67
2018-03-29T05:05:39.287Z,25.77
2018-03-29T05:08:06.836Z,26.37
2018-03-29T05:10:34.359Z,25.23
2018-03-29T05:13:01.883Z,27.17
2018-03-29T05:15:29.422Z,25.30
2018-03-29T05:17:56.939Z,25.57
2018-03-29T05:20:24.445Z,24.50
2018-03-29T05:22:51.969Z,26.67
2018-03-29T05:25:20.299Z,25.17
2018-03-29T05:27:53.624Z,25.53
2018-03-29T05:30:21.172Z,23.20
2018-03-29T05:32:48.689Z,24.07
2018-03-29T05:35:16.215Z,26.83
2018-03-29T05:37:43.747Z,25.93
2018-03-29T05:40:11.299Z,25.37
2018-03-29T05:42:38.804Z,25.07
2018-03-29T05:45:06.357Z,23.73
2018-03-29T05:47:33.889Z,27.30
2018-03-29T05:50:01.441Z,29.63
2018-03-29T05:52:28.969Z,25.63
2018-03-29T05:54:56.494Z,27.77
2018-03-29T05:57:24.032Z,27.87
2018-03-29T05:59:51.560Z,27.80
2018-03-29T06:02:19.072Z,28.47
2018-03-29T06:04:46.588Z,29.07
2018-03-29T06:07:14.173Z,28.67
2018-03-29T06:09:41.693Z,29.30
2018-03-29T06:12:09.220Z,25.20
2018-03-29T06:14:42.460Z,28.63
2018-03-29T06:17:10.015Z,27.17
2018-03-29T06:19:37.572Z,30.53
2018-03-29T06:22:05.084Z,29.57
2018-03-29T06:24:32.611Z,27.20
2018-03-29T06:27:00.156Z,29.47
2018-03-29T06:29:27.697Z,27.50
2018-03-29T06:31:55.248Z,27.07
2018-03-29T06:34:22.772Z,28.17
2018-03-29T06:36:50.303Z,28.90
2018-03-29T06:39:17.840Z,29.80
2018-03-29T06:41:45.358Z,28.93
2018-03-29T06:44:12.919Z,29.50
2018-03-29T06:46:40.457Z,28.37
2018-03-29T06:49:08.759Z,28.47
2018-03-29T06:51:36.276Z,29.00
2018-03-29T06:54:03.863Z,29.77
2018-03-29T06:56:31.408Z,28.37
2018-03-29T06:58:58.931Z,27.47
2018-03-29T07:01:26.460Z,30.20
2018-03-29T07:03:54.045Z,29.20
2018-03-29T07:06:21.576Z,27.23
2018-03-29T07:08:49.130Z,28.70
2018-03-29T07:11:17.415Z,28.17
2018-03-29T07:13:44.932Z,27.70
2018-03-29T07:16:12.462Z,28.80
2018-03-29T07:18:39.983Z,27.40
2018-03-29T07:21:08.272Z,23.50
2018-03-29T07:23:36.547Z,28.53
2018-03-29T07:26:04.063Z,28.00
2018-03-29T07:28:31.601Z,27.43
2018-03-29T07:30:59.122Z,30.17
2018-03-29T07:33:27.447Z,26.90
2018-03-29T07:35:54.956Z,26.13
2018-03-29T07:38:22.488Z,26.43
2018-03-29T07:40:50.097Z,26.83
2018-03-29T07:43:18.398Z,27.90
2018-03-29T07:45:45.956Z,27.10
2018-03-29T07:48:13.479Z,27.57
2018-03-29T07:50:41.046Z,31.47
2018-03-29T07:53:08.604Z,29.60
2018-03-29T07:55:36.892Z,29.43
2018-03-29T07:58:04.415Z,26.23
2018-03-29T08:00:32.007Z,24.87
2018-03-29T08:02:59.537Z,26.17
2018-03-29T08:05:27.072Z,24.57
2018-03-29T08:07:54.589Z,27.37
2018-03-29T08:10:22.896Z,27.03
2018-03-29T08:12:50.412Z,26.67
2018-03-29T08:15:17.983Z,28.23
2018-03-29T08:17:45.491Z,26.00
2018-03-29T08:20:13.312Z,27.40
2018-03-29T08:22:40.835Z,27.70
2018-03-29T08:25:08.369Z,26.33
2018-03-29T08:27:35.900Z,30.70
2018-03-29T08:30:03.427Z,29.57
2018-03-29T08:32:30.950Z,26.23
2018-03-29T08:34:58.472Z,29.73
2018-03-29T08:37:26.768Z,28.17
2018-03-29T08:39:54.799Z,27.30
2018-03-29T08:42:22.356Z,30.53
2018-03-29T08:44:51.211Z,26.67
2018-03-29T08:47:18.727Z,24.63
2018-03-29T08:49:47.019Z,25.90
2018-03-29T08:52:14.573Z,23.83
2018-03-29T08:54:42.087Z,25.57
2018-03-29T08:57:10.337Z,26.73
2018-03-29T08:59:37.884Z,24.20
2018-03-29T09:02:05.421Z,22.37
2018-03-29T09:04:33.716Z,26.27
2018-03-29T09:07:02.031Z,26.13
2018-03-29T09:09:29.548Z,24.17
2018-03-29T09:11:57.073Z,24.80
2018-03-29T09:14:24.596Z,25.47
2018-03-29T09:16:52.133Z,25.80
2018-03-29T09:19:19.653Z,24.83
2018-03-29T09:21:47.167Z,23.87
2018-03-29T09:24:14.684Z,20.00
2018-03-29T09:26:42.213Z,22.87
2018-03-29T09:29:09.737Z,23.53
2018-03-29T09:31:37.263Z,23.03
2018-03-29T09:34:04.845Z,21.47
2018-03-29T09:36:33.159Z,21.33
2018-03-29T09:39:00.694Z,22.73
2018-03-29T09:41:28.972Z,22.17
2018-03-29T09:43:56.500Z,20.90
2018-03-29T09:46:24.023Z,22.43
2018-03-29T09:48:51.548Z,20.60
2018-03-29T09:51:19.067Z,20.43
2018-03-29T09:53:46.594Z,20.73
2018-03-29T09:56:14.224Z,21.13
2018-03-29T09:58:41.760Z,22.20
2018-03-29T10:01:09.274Z,22.20
2018-03-29T10:03:39.720Z,22.43
2018-03-29T10:06:07.744Z,21.93
2018-03-29T10:08:35.279Z,20.17
2018-03-29T10:11:02.808Z,18.67
2018-03-29T10:13:30.358Z,18.37
2018-03-29T10:15:58.047Z,20.00
2018-03-29T10:18:25.427Z,19.37
2018-03-29T10:20:52.959Z,18.30
2018-03-29T10:23:20.492Z,18.40
2018-03-29T10:25:48.019Z,17.07
2018-03-29T10:28:15.547Z,17.23
2018-03-29T10:30:43.843Z,18.27
2018-03-29T10:33:11.387Z,17.20
2018-03-29T10:35:39.680Z,16.00
2018-03-29T10:38:07.218Z,14.33
2018-03-29T10:40:34.734Z,15.53
2018-03-29T10:43:02.296Z,14.70
2018-03-29T10:45:30.586Z,13.40
2018-03-29T10:47:58.119Z,12.43
2018-03-29T10:50:26.454Z,11.63
2018-03-29T10:52:53.984Z,11.30
2018-03-29T10:55:21.548Z,10.43
2018-03-29T10:57:49.090Z,9.90
2018-03-29T11:00:16.660Z,9.80
2018-03-29T11:02:44.939Z,9.30
2018-03-29T11:05:12.544Z,9.87
2018-03-29T11:07:40.059Z,8.93
2018-03-29T11:10:07.586Z,9.67
2018-03-29T11:12:36.619Z,9.87
2018-03-29T11:15:04.150Z,10.67
2018-03-29T11:17:31.713Z,9.97
2018-03-29T11:20:00.017Z,9.73
2018-03-29T11:22:27.535Z,10.87
2018-03-29T11:24:55.060Z,8.40
2018-03-29T11:27:22.578Z,8.23
2018-03-29T11:29:51.775Z,8.30
2018-03-29T11:32:19.283Z,8.20
2018-03-29T11:34:46.815Z,7.43
2018-03-29T11:37:14.376Z,8.03
2018-03-29T11:39:42.670Z,7.70
2018-03-29T11:42:10.201Z,7.70
2018-03-29T11:44:38.587Z,7.40
2018-03-29T11:47:06.895Z,6.80
2018-03-29T11:49:34.410Z,6.43
2018-03-29T11:52:02.700Z,5.40
2018-03-29T11:54:30.233Z,5.90
2018-03-29T11:56:57.819Z,6.03
2018-03-29T11:59:25.365Z,4.60
2018-03-29T12:01:52.885Z,4.87
2018-03-29T12:04:20.407Z,5.50
2018-03-29T12:06:48.679Z,4.97
2018-03-29T12:09:16.257Z,5.20
2018-03-29T12:11:43.776Z,5.70
2018-03-29T12:14:11.302Z,5.50
2018-03-29T12:16:38.825Z,5.13
2018-03-29T12:19:07.307Z,4.90
2018-03-29T12:21:34.868Z,4.73
2018-03-29T12:24:02.386Z,4.83
2018-03-29T12:26:29.936Z,4.80
2018-03-29T12:28:57.443Z,4.90
2018-03-29T12:31:25.719Z,4.47
2018-03-29T12:33:53.252Z,4.70
2018-03-29T12:36:20.789Z,4.50
2018-03-29T12:38:48.375Z,4.40
2018-03-29T12:41:15.893Z,4.33
2018-03-29T12:43:43.420Z,4.40
2018-03-29T12:46:11.713Z,4.53
2018-03-29T12:48:39.240Z,4.43
2018-03-29T12:51:06.832Z,4.57
2018-03-29T12:53:34.324Z,4.13
2018-03-29T12:56:01.888Z,3.80
2018-03-29T12:58:29.404Z,4.20
2018-03-29T13:00:57.714Z,4.10
2018-03-29T13:03:25.235Z,3.60
2018-03-29T13:05:53.532Z,3.83
2018-03-29T13:08:21.057Z,3.23
2018-03-29T13:10:48.572Z,2.73
2018-03-29T13:13:16.095Z,3.10
2018-03-29T13:15:43.627Z,3.10
2018-03-29T13:18:11.165Z,2.63
2018-03-29T13:20:38.709Z,2.63
2018-03-29T13:23:06.240Z,2.80
2018-03-29T13:25:33.756Z,2.90
2018-03-29T13:28:01.294Z,2.90
2018-03-29T13:30:28.812Z,2.33
2018-03-29T13:32:57.121Z,2.93
2018-03-29T13:35:24.662Z,2.77
2018-03-29T13:37:52.165Z,2.77
2018-03-29T13:40:19.691Z,2.70
2018-03-29T13:42:47.248Z,2.83
2018-03-29T13:45:14.774Z,3.20
2018-03-29T13:47:42.336Z,2.80
2018-03-29T13:50:10.063Z,2.80
2018-03-29T13:52:37.584Z,2.83
2018-03-29T13:55:05.876Z,3.10
2018-03-29T13:57:34.170Z,3.17
2018-03-29T14:00:01.765Z,3.03
2018-03-29T14:02:29.289Z,2.90
2018-03-29T14:04:56.828Z,3.10
2018-03-29T14:07:24.363Z,3.37
2018-03-29T14:09:52.002Z,3.27
2018-03-29T14:12:19.527Z,3.30
2018-03-29T14:14:47.062Z,3.33
2018-03-29T14:17:15.355Z,3.50
2018-03-29T14:19:44.240Z,3.50
2018-03-29T14:22:12.519Z,3.23
2018-03-29T14:24:40.799Z,3.23
2018-03-29T14:27:08.339Z,3.60
2018-03-29T14:29:35.858Z,4.00
2018-03-29T14:32:03.403Z,4.43
2018-03-29T14:34:30.919Z,4.67
2018-03-29T14:36:58.465Z,4.27
2018-03-29T14:39:26.084Z,4.17
2018-03-29T14:41:53.651Z,4.30
2018-03-29T14:44:21.173Z,4.27
2018-03-29T14:46:49.553Z,3.70
2018-03-29T14:49:17.035Z,3.40
2018-03-29T14:51:45.328Z,3.63
2018-03-29T14:54:12.846Z,3.60
2018-03-29T14:56:41.133Z,3.40
2018-03-29T14:59:08.656Z,3.00
2018-03-29T15:01:36.179Z,2.90
2018-03-29T15:04:03.708Z,3.13
2018-03-29T15:06:31.239Z,2.90
2018-03-29T15:08:58.750Z,2.70
2018-03-29T15:11:26.265Z,2.60
2018-03-29T15:13:53.812Z,2.80
2018-03-29T15:16:21.316Z,2.70
2018-03-29T15:18:48.855Z,2.73
2018-03-29T15:21:16.383Z,2.87
2018-03-29T15:23:43.911Z,2.80
2018-03-29T15:26:12.191Z,2.60
2018-03-29T15:28:39.712Z,2.33
2018-03-29T15:31:07.242Z,2.67
2018-03-29T15:33:34.847Z,2.73
2018-03-29T15:36:02.365Z,2.63
2018-03-29T15:38:29.895Z,3.00
2018-03-29T15:40:57.403Z,2.30
2018-03-29T15:43:24.921Z,3.23
2018-03-29T15:45:52.444Z,35.43
2018-03-29T15:48:19.970Z,3.30
2018-03-29T15:50:47.506Z,3.50
2018-03-29T15:53:15.031Z,3.20
2018-03-29T15:55:43.311Z,3.03
2018-03-29T15:58:12.228Z,3.00
2018-03-29T16:00:39.804Z,2.90
2018-03-29T16:03:07.323Z,3.07
2018-03-29T16:05:34.873Z,2.90
2018-03-29T16:08:02.775Z,2.80
2018-03-29T16:10:30.303Z,3.00
2018-03-29T16:12:57.819Z,2.60
2018-03-29T16:15:25.343Z,2.97
2018-03-29T16:17:52.859Z,2.97
2018-03-29T16:20:20.390Z,3.27
2018-03-29T16:22:47.916Z,3.27
2018-03-29T16:25:15.451Z,2.87
2018-03-29T16:27:42.967Z,3.00
2018-03-29T16:30:10.487Z,3.10
2018-03-29T16:32:38.775Z,2.90
2018-03-29T16:35:06.309Z,3.40
2018-03-29T16:37:33.828Z,3.23
2018-03-29T16:40:02.172Z,2.90
2018-03-29T16:42:29.734Z,3.10
2018-03-29T16:44:57.273Z,2.90
2018-03-29T16:47:24.816Z,3.17
2018-03-29T16:49:52.390Z,3.20
2018-03-29T16:52:19.955Z,3.10
2018-03-29T16:54:48.069Z,2.93
2018-03-29T16:57:15.583Z,3.30
2018-03-29T16:59:44.075Z,2.87
2018-03-29T17:02:11.599Z,3.00
2018-03-29T17:04:39.125Z,2.93
2018-03-29T17:07:06.665Z,2.90
2018-03-29T17:09:34.180Z,2.90
2018-03-29T17:12:01.694Z,3.23
2018-03-29T17:14:29.983Z,2.93
2018-03-29T17:16:58.943Z,2.97
2018-03-29T17:19:26.462Z,2.87
2018-03-29T17:21:54.003Z,2.93
2018-03-29T17:24:21.531Z,2.67
2018-03-29T17:26:49.078Z,2.60
2018-03-29T17:29:16.587Z,2.73
2018-03-29T17:31:44.865Z,2.80
2018-03-29T17:34:12.391Z,2.57
2018-03-29T17:36:39.920Z,2.40
2018-03-29T17:39:07.436Z,2.77
2018-03-29T17:41:34.964Z,3.80
2018-03-29T17:44:02.483Z,2.90
2018-03-29T17:46:30.011Z,3.20
2018-03-29T17:48:58.299Z,3.20
2018-03-29T17:51:25.824Z,2.80
2018-03-29T17:53:54.258Z,3.10
2018-03-29T17:56:21.800Z,2.77
2018-03-29T17:58:49.364Z,3.10
2018-03-29T18:01:17.071Z,3.27
2018-03-29T18:03:44.608Z,3.50
2018-03-29T18:06:12.127Z,4.10
2018-03-29T18:08:39.677Z,4.27
2018-03-29T18:11:07.190Z,4.30
2018-03-29T18:13:34.711Z,4.70
2018-03-29T18:16:02.265Z,3.40
2018-03-29T18:18:29.806Z,3.87
2018-03-29T18:20:57.403Z,3.40
2018-03-29T18:23:24.879Z,3.70
2018-03-29T18:25:52.508Z,3.80
2018-03-29T18:28:20.043Z,4.80
2018-03-29T18:30:47.564Z,3.93
2018-03-29T18:33:15.115Z,4.50
2018-03-29T18:35:43.400Z,3.70
2018-03-29T18:38:10.920Z,3.77
2018-03-29T18:40:38.447Z,3.30
2018-03-29T18:43:06.053Z,4.37
2018-03-29T18:45:33.598Z,4.40
2018-03-29T18:48:01.138Z,4.57
2018-03-29T18:50:28.661Z,4.77
2018-03-29T18:52:56.774Z,4.33
2018-03-29T18:55:24.375Z,4.20
2018-03-29T18:57:52.699Z,4.53
2018-03-29T19:00:20.325Z,4.37
2018-03-29T19:02:47.878Z,4.97
2018-03-29T19:05:15.452Z,4.80
2018-03-29T19:07:43.770Z,4.87
2018-03-29T19:10:13.235Z,5.40
2018-03-29T19:12:40.764Z,5.50
2018-03-29T19:15:08.387Z,5.50
2018-03-29T19:17:35.911Z,5.17
2018-03-29T19:20:03.428Z,5.53
2018-03-29T19:22:30.961Z,6.90
2018-03-29T19:24:58.499Z,6.87
2018-03-29T19:27:26.781Z,7.37
2018-03-29T19:29:54.296Z,6.50
2018-03-29T19:32:22.401Z,5.67
2018-03-29T19:34:50.680Z,5.50
2018-03-29T19:37:18.214Z,5.70
2018-03-29T19:39:45.734Z,5.47
2018-03-29T19:42:13.251Z,5.07
2018-03-29T19:44:40.780Z,4.90
2018-03-29T19:47:08.318Z,5.60
2018-03-29T19:49:35.843Z,4.97
2018-03-29T19:52:04.137Z,4.97
2018-03-29T19:54:31.683Z,5.00
2018-03-29T19:56:59.959Z,5.20
2018-03-29T19:59:27.479Z,5.40
2018-03-29T20:01:55.018Z,5.17
2018-03-29T20:04:22.540Z,5.53
2018-03-29T20:06:50.859Z,5.77
2018-03-29T20:09:18.380Z,5.27
2018-03-29T20:11:46.110Z,5.67
2018-03-29T20:14:13.647Z,5.13
2018-03-29T20:16:41.206Z,5.63
2018-03-29T20:19:08.737Z,5.17
2018-03-29T20:21:36.736Z,5.90
2018-03-29T20:24:04.259Z,5.43
2018-03-29T20:26:32.551Z,6.30
2018-03-29T20:29:00.075Z,6.17
2018-03-29T20:31:27.596Z,5.93
2018-03-29T20:33:55.668Z,6.70
2018-03-29T20:36:23.197Z,6.10
2018-03-29T20:38:51.498Z,6.53
2018-03-29T20:41:19.555Z,5.70
2018-03-29T20:43:47.404Z,7.40
2018-03-29T20:46:15.308Z,6.27
2018-03-29T20:48:42.831Z,5.90
2018-03-29T20:51:11.127Z,5.93
2018-03-29T20:53:38.750Z,6.17
2018-03-29T20:56:06.256Z,6.70
2018-03-29T20:58:33.823Z,6.13
2018-03-29T21:01:11.024Z,6.27
2018-03-29T21:03:39.265Z,6.30
2018-03-29T21:06:06.771Z,6.97
2018-03-29T21:08:34.283Z,6.97
2018-03-29T21:11:01.808Z,7.43
2018-03-29T21:13:29.324Z,7.57
2018-03-29T21:15:56.910Z,7.13
2018-03-29T21:18:24.431Z,7.10
2018-03-29T21:20:51.960Z,6.60
2018-03-29T21:23:19.508Z,6.90
2018-03-29T21:25:47.132Z,7.10
2018-03-29T21:28:14.647Z,6.83
2018-03-29T21:30:42.436Z,6.57
2018-03-29T21:33:09.961Z,6.53
2018-03-29T21:35:37.490Z,6.33
2018-03-29T21:38:05.002Z,6.10
2018-03-29T21:40:33.088Z,5.75
2018-03-29T21:43:00.623Z,6.00
2018-03-29T21:45:28.184Z,5.57
2018-03-29T21:47:55.705Z,5.83
2018-03-29T21:50:23.228Z,5.20
2018-03-29T21:52:50.756Z,5.67
2018-03-29T21:55:18.265Z,5.67
2018-03-29T21:57:45.784Z,5.30
2018-03-29T22:00:13.317Z,5.57
2018-03-29T22:02:40.854Z,5.50
2018-03-29T22:05:08.383Z,5.73
2018-03-29T22:07:36.004Z,5.60
2018-03-29T22:10:03.520Z,6.33
2018-03-29T22:12:31.048Z,6.27
2018-03-29T22:14:58.565Z,6.33
2018-03-29T22:17:26.073Z,6.53
2018-03-29T22:19:53.589Z,6.57
2018-03-29T22:22:21.138Z,6.07
2018-03-29T22:24:48.659Z,6.07
2018-03-29T22:27:16.187Z,6.37
2018-03-29T22:29:43.700Z,6.50
2018-03-29T22:32:12.087Z,6.00
2018-03-29T22:34:40.371Z,6.00
2018-03-29T22:37:07.875Z,6.03
2018-03-29T22:39:35.391Z,6.30
2018-03-29T22:42:03.665Z,5.90
2018-03-29T22:44:31.952Z,6.73
2018-03-29T22:46:59.556Z,7.33
2018-03-29T22:49:27.088Z,5.97
2018-03-29T22:51:54.608Z,6.03
2018-03-29T22:54:22.127Z,5.20
2018-03-29T22:56:50.215Z,5.87
2018-03-29T22:59:17.720Z,5.20
2018-03-29T23:01:45.256Z,4.90
2018-03-29T23:04:12.775Z,5.37
2018-03-29T23:06:40.296Z,5.30
2018-03-29T23:09:07.888Z,5.07
2018-03-29T23:11:35.412Z,5.10
2018-03-29T23:14:03.719Z,4.57
2018-03-29T23:16:31.238Z,5.23
2018-03-29T23:18:59.493Z,4.90
2018-03-29T23:21:27.003Z,5.00
2018-03-29T23:23:54.526Z,5.07
2018-03-29T23:26:22.037Z,4.70
2018-03-29T23:28:49.559Z,5.37
2018-03-29T23:31:17.075Z,5.60
2018-03-29T23:33:44.660Z,5.97
2018-03-29T23:36:12.178Z,6.23
2018-03-29T23:38:39.723Z,5.70
2018-03-29T23:41:07.204Z,5.57
2018-03-29T23:43:34.729Z,5.80
2018-03-29T23:46:02.247Z,6.17
2018-03-29T23:48:29.755Z,6.10
2018-03-29T23:50:58.023Z,6.10
2018-03-29T23:53:25.527Z,5.37
2018-03-29T23:55:53.048Z,5.80
2018-03-29T23:58:21.316Z,5.60
